Thunder radar more information blitzortung!


Radar de pluja more information rain snow radar


Visita la nostra xarxa de llocs de meteo:

Template documentation
and downloads

And another site



No particular awareness of the weather is required.    There are no Weather-warnings

Pagina Historial Weather Underground text

Diari Resum Juny 26, 2017 Unitats:  Mètric    Imperial   Tant
« Previous Dia
SegĂźent Dia »
Diari Setmana Mensual Anual Personalitzada
  Maxima: Minima: Media:
Temperatura: -17.8 °C -6.4 °C -2.1 °C
Punt de rosada: -17.8 °C -12.4 °C -10.1 °C
Humitat: Humidity % 25 % 44 %
Wind Speed: 0 km/h 0 km/h 11.6 km/h
RĂ fegues de vent: 0 km/h - -
Vent:- - South
Pression baro: 0 hPa 34063.2 hPa -
Precipitacions: 0 mm    
Historical Graphs
 
 
Dades de taula per Juny 26, 2017
Temps Temperatura Punt de rosada Pression baro Vent Wind Speed RĂ fegues de vent Humitat Rainfall Rate (Hourly)
-17.8 °C -17.8 °C 0 hPa Calm     Humidity % 0 mm
00:00 -6.1 °C -7.4 °C 34256.2 hPa Calm   2.6 km/h 86 % 0 mm
00:01 -4.9 °C -7.3 °C 34293.4 hPa ENE 6 km/h 6 km/h 77 % 0 mm
00:10 -6.1 °C -7.5 °C 34256.2 hPa SSW 5.1 km/h 7.7 km/h 85 % 0 mm
00:20 -6.2 °C -7.6 °C 34256.2 hPa SW 2.6 km/h 5.1 km/h 85 % 0 mm
00:30 -6.2 °C -7.7 °C 34256.2 hPa WSW 5.1 km/h 7.7 km/h 85 % 0 mm
00:40 -6.2 °C -7.7 °C 34293.4 hPa WSW 2.6 km/h 5.1 km/h 85 % 0 mm
00:50 -6.2 °C -7.7 °C 34293.4 hPa Calm     85 % 0 mm
01:00 -6.2 °C -7.7 °C 34256.2 hPa WSW 2.6 km/h 5.1 km/h 85 % 0 mm
01:10 -6.2 °C -7.7 °C 34256.2 hPa SW 2.6 km/h 5.1 km/h 85 % 0 mm
01:20 -6.2 °C -7.6 °C 34256.2 hPa SW 2.6 km/h 5.1 km/h 86 % 0 mm
01:30 -6.2 °C -7.7 °C 34256.2 hPa NE 2.6 km/h 7.7 km/h 85 % 0 mm
01:40 -6.3 °C -7.8 °C 34222.3 hPa Calm   2.6 km/h 84 % 0 mm
01:50 -6.4 °C -7.9 °C 34222.3 hPa West 2.6 km/h 7.7 km/h 84 % 0 mm
02:00 -6.4 °C -8.1 °C 34256.2 hPa West 2.6 km/h 7.7 km/h 83 % 0 mm
02:10 -6.4 °C -8.1 °C 34198.6 hPa NE 18.2 km/h 18.2 km/h 83 % 0 mm
02:20 -6.3 °C -7.8 °C 34198.6 hPa NE 5.1 km/h 23.3 km/h 84 % 0 mm
02:30 -6.3 °C -7.9 °C 34164.7 hPa ENE 2.6 km/h 10.3 km/h 84 % 0 mm
02:40 -6.3 °C -7.9 °C 34198.6 hPa WNW 5.1 km/h 5.1 km/h 84 % 0 mm
02:50 -6.3 °C -7.9 °C 34198.6 hPa WSW 5.1 km/h 7.7 km/h 83 % 0 mm
03:00 -6.3 °C -7.9 °C 34198.6 hPa SW 2.6 km/h 7.7 km/h 83 % 0 mm
03:10 -6.3 °C -8.1 °C 34256.2 hPa SW 7.7 km/h 10.3 km/h 82 % 0 mm
03:20 -6.3 °C -8.2 °C 34256.2 hPa SSW 15.6 km/h 15.6 km/h 81 % 0 mm
03:30 -6.3 °C -8.2 °C 34256.2 hPa SW 5.1 km/h 10.3 km/h 81 % 0 mm
03:40 -6.3 °C -8.3 °C 34222.3 hPa Calm   10.3 km/h 80 % 0 mm
03:50 -6.2 °C -8.3 °C 34222.3 hPa NE 2.6 km/h 2.6 km/h 79 % 0 mm
04:00 -6 °C -8.2 °C 34256.2 hPa NE 5.1 km/h 10.3 km/h 78 % 0 mm
04:10 -5.6 °C -7.8 °C 34222.3 hPa NNE 12.9 km/h 15.6 km/h 78 % 0 mm
04:20 -5.2 °C -7.6 °C 34222.3 hPa NE 12.9 km/h 20.8 km/h 77 % 0 mm
04:30 -4.8 °C -7.4 °C 34256.2 hPa NE 7.7 km/h 12.9 km/h 75 % 0 mm
04:40 -4.4 °C -7.3 °C 34164.7 hPa NE 7.7 km/h 12.9 km/h 73 % 0 mm
04:50 -4.3 °C -7.7 °C 34164.7 hPa NE 12.9 km/h 20.8 km/h 69 % 0 mm
05:00 -4.3 °C -7.9 °C 34198.6 hPa NE 15.6 km/h 23.3 km/h 67 % 0 mm
05:10 -3.9 °C -7.7 °C 34198.6 hPa NE 7.7 km/h 12.9 km/h 66 % 0 mm
05:20 -3.4 °C -7.9 °C 34198.6 hPa NE 7.7 km/h 12.9 km/h 61 % 0 mm
05:30 -3.1 °C -8 °C 34164.7 hPa NE 7.7 km/h 12.9 km/h 58 % 0 mm
10:31 -2.7 °C -8.3 °C 34130.9 hPa NE 10.3 km/h 10.3 km/h 54 % 0 mm
10:36 -2.4 °C -8.8 °C 34130.9 hPa NNE 20.9 km/h 20.9 km/h 50 % 0 mm
10:41 -2.5 °C -9 °C 34130.9 hPa NNW 27.2 km/h 27.2 km/h 49 % 0 mm
10:46 -2.4 °C -8.9 °C 34130.9 hPa NE 14 km/h 14 km/h 49 % 0 mm
10:51 -2.4 °C -8.7 °C 34130.9 hPa NE 15.6 km/h 15.6 km/h 50 % 0 mm
10:56 -2.1 °C -8.4 °C 34130.9 hPa NE 9 km/h 9 km/h 50 % 0 mm
11:01 -2.2 °C -8.7 °C 34130.9 hPa NNE 23.8 km/h 23.8 km/h 49 % 0 mm
11:06 -2 °C -8.5 °C 34130.9 hPa NNE 16.6 km/h 16.6 km/h 49 % 0 mm
11:11 -1.9 °C -8.5 °C 34130.9 hPa East 15 km/h 15 km/h 49 % 0 mm
11:17 -2.1 °C -8.8 °C 34097 hPa ENE 15 km/h 15 km/h 48 % 0 mm
11:22 -2.2 °C -8.8 °C 34097 hPa NNE 15 km/h 15 km/h 48 % 0 mm
11:27 -1.8 °C -8.5 °C 34130.9 hPa NNE 15 km/h 15 km/h 48 % 0 mm
11:32 -1.8 °C -8.6 °C 34130.9 hPa NNE 9.3 km/h 9.3 km/h 48 % 0 mm
11:37 -1.9 °C -8.7 °C 34130.9 hPa East 15 km/h 15 km/h 48 % 0 mm
11:42 -1.6 °C -8.6 °C 34130.9 hPa NNE 10.3 km/h 10.3 km/h 47 % 0 mm
11:47 -1.6 °C -8.7 °C 34130.9 hPa ENE 9 km/h 9 km/h 46 % 0 mm
11:52 -1.3 °C -8.3 °C 34130.9 hPa West 6 km/h 6 km/h 47 % 0 mm
11:57 -1.1 °C -8.1 °C 34130.9 hPa NW 6.3 km/h 6.8 km/h 47 % 0 mm
12:02 -0.9 °C -8.3 °C 34130.9 hPa SSE 9 km/h 9 km/h 45 % 0 mm
12:07 -0.8 °C -8.4 °C 34130.9 hPa ESE 11.9 km/h 11.9 km/h 44 % 0 mm
12:12 -0.9 °C -8.8 °C 34130.9 hPa SE 11.9 km/h 11.9 km/h 42 % 0 mm
12:17 -0.6 °C -9.3 °C 34130.9 hPa ESE 8 km/h 8 km/h 39 % 0 mm
12:22 -0.8 °C -9 °C 34130.9 hPa WSW 9 km/h 9 km/h 41 % 0 mm
12:23 -0.8 °C -9 °C 34130.9 hPa WSW 9 km/h 9 km/h 41 % 0 mm
12:28 -0.6 °C -9 °C 34130.9 hPa SSW 2.3 km/h   40 % 0 mm
12:33 -0.6 °C -9.4 °C 34130.9 hPa ESE 9 km/h 9 km/h 38 % 0 mm
12:38 -0.5 °C -9.8 °C 34130.9 hPa South 9 km/h 9 km/h 36 % 0 mm
12:43 0.1 °C -8.9 °C 34097 hPa East 4.2 km/h   38 % 0 mm
12:48 -0.4 °C -9.6 °C 34097 hPa ENE 9 km/h 9 km/h 37 % 0 mm
12:53 -0.4 °C -9.3 °C 34097 hPa NNE 11.9 km/h 11.9 km/h 38 % 0 mm
12:58 -0.3 °C -9.4 °C 34130.9 hPa ESE 15 km/h 15 km/h 37 % 0 mm
13:03 -0.3 °C -9.7 °C 34130.9 hPa NE 17.9 km/h 17.9 km/h 36 % 0 mm
13:08 -0.4 °C -10 °C 34130.9 hPa SE 23.8 km/h 23.8 km/h 35 % 0 mm
13:13 -0.5 °C -10.9 °C 34130.9 hPa SSE 32.8 km/h 32.8 km/h 32 % 0 mm
13:18 -0.3 °C -10.7 °C 34130.9 hPa SE 15 km/h 20.9 km/h 32 % 0 mm
13:23 -0.3 °C -10.9 °C 34130.9 hPa ESE 30.6 km/h 30.6 km/h 31 % 0 mm
13:28 0.1 °C -10.4 °C 34130.9 hPa SSW 17.9 km/h 17.9 km/h 32 % 0 mm
13:33 0.2 °C -10 °C 34130.9 hPa SSE 20.9 km/h 20.9 km/h 33 % 0 mm
13:38 0 °C -9.7 °C 34130.9 hPa East 23.8 km/h 23.8 km/h 35 % 0 mm
13:43 -0.4 °C -10.2 °C 34130.9 hPa ESE 44.7 km/h 44.7 km/h 34 % 0 mm
13:48 -0.2 °C -10.3 °C 34130.9 hPa SE 15 km/h 15 km/h 33 % 0 mm
13:53 -0.1 °C -10.4 °C 34130.9 hPa ESE 20.3 km/h 20.3 km/h 32 % 0 mm
13:58 0 °C -10.4 °C 34130.9 hPa SW 17.9 km/h 17.9 km/h 32 % 0 mm
14:03 0.2 °C -10.2 °C 34130.9 hPa SSE 26.9 km/h 26.9 km/h 32 % 0 mm
14:08 -0.2 °C -10.6 °C 34130.9 hPa ESE 26.9 km/h 26.9 km/h 32 % 0 mm
14:13 -0.4 °C -11 °C 34130.9 hPa ESE 29.8 km/h 29.8 km/h 31 % 0 mm
14:18 -0.1 °C -10.8 °C 34130.9 hPa East 20.9 km/h 20.9 km/h 31 % 0 mm
14:23 -0.3 °C -10.9 °C 34130.9 hPa NNE 25.1 km/h 25.1 km/h 31 % 0 mm
14:28 -0.1 °C -10.7 °C 34130.9 hPa SSE 23.8 km/h 23.8 km/h 31 % 0 mm
14:33 0.1 °C -10.9 °C 34130.9 hPa South 15.3 km/h 15.3 km/h 30 % 0 mm
14:38 0.5 °C -10.5 °C 34130.9 hPa South 11.9 km/h 11.9 km/h 30 % 0 mm
14:43 0.3 °C -10.4 °C 34130.9 hPa SW 14.5 km/h 14.5 km/h 31 % 0 mm
14:48 0.6 °C -10.7 °C 34130.9 hPa SE 15 km/h 15 km/h 29 % 0 mm
14:53 0.4 °C -10.6 °C 34130.9 hPa South 15 km/h 15 km/h 30 % 0 mm
14:58 0.5 °C -10.5 °C 34130.9 hPa South 11.9 km/h 11.9 km/h 30 % 0 mm
15:03 0.9 °C -10.4 °C 34130.9 hPa SW 17.9 km/h 17.9 km/h 29 % 0 mm
15:08 0.8 °C -10.6 °C 34130.9 hPa WSW 15 km/h 15 km/h 29 % 0 mm
15:13 0.9 °C -10.5 °C 34130.9 hPa West 17.9 km/h 17.9 km/h 29 % 0 mm
15:18 0.8 °C -10.6 °C 34130.9 hPa South 20.9 km/h 20.9 km/h 29 % 0 mm
15:23 0.7 °C -10.7 °C 34130.9 hPa SSW 17.9 km/h 17.9 km/h 29 % 0 mm
15:28 0.4 °C -11.2 °C 34130.9 hPa SW 19.6 km/h 19.6 km/h 28 % 0 mm
15:33 0.3 °C -11.3 °C 34130.9 hPa SSE 15 km/h 15 km/h 28 % 0 mm
15:38 0.5 °C -11.1 °C 34130.9 hPa SSW 20.9 km/h 20.9 km/h 28 % 0 mm
15:43 0.5 °C -11.1 °C 34130.9 hPa SSE 26.9 km/h 26.9 km/h 28 % 0 mm
15:48 0.4 °C -11.2 °C 34130.9 hPa SW 17.9 km/h 17.9 km/h 28 % 0 mm
15:53 0.6 °C -11 °C 34130.9 hPa SW 11.9 km/h 11.9 km/h 28 % 0 mm
15:58 0.8 °C -10.9 °C 34130.9 hPa WSW 15 km/h 15 km/h 28 % 0 mm
16:03 0.7 °C -11 °C 34130.9 hPa South 9 km/h 9 km/h 28 % 0 mm
16:08 0.7 °C -10.9 °C 34130.9 hPa WSW 11.9 km/h 11.9 km/h 28 % 0 mm
16:13 0.8 °C -11.2 °C 34130.9 hPa South 14 km/h 14 km/h 27 % 0 mm
16:18 1.1 °C -10.9 °C 34130.9 hPa SW 11.9 km/h 11.9 km/h 27 % 0 mm
16:23 1.1 °C -10.9 °C 34130.9 hPa West 11.9 km/h 11.9 km/h 27 % 0 mm
16:28 1.1 °C -10.9 °C 34097 hPa SW 23.8 km/h 23.8 km/h 27 % 0 mm
16:33 1.2 °C -10.9 °C 34097 hPa SW 11.9 km/h 11.9 km/h 27 % 0 mm
16:38 1.2 °C -10.9 °C 34097 hPa WSW 23.8 km/h 23.8 km/h 27 % 0 mm
16:43 0.9 °C -11.1 °C 34097 hPa WSW 11.9 km/h 11.9 km/h 27 % 0 mm
16:48 1.1 °C -11.3 °C 34097 hPa WSW 11.9 km/h 11.9 km/h 26 % 0 mm
16:53 1.4 °C -10.6 °C 34097 hPa South 9 km/h 9 km/h 27 % 0 mm
16:58 1.2 °C -11.2 °C 34097 hPa ESE 6 km/h 6 km/h 26 % 0 mm
17:03 1.2 °C -11.2 °C 34097 hPa SSE 6 km/h 6 km/h 26 % 0 mm
17:08 1.4 °C -11 °C 34097 hPa South 11.9 km/h 11.9 km/h 26 % 0 mm
17:13 0.8 °C -11.5 °C 34097 hPa ESE 15 km/h 15 km/h 26 % 0 mm
17:18 0.5 °C -11.8 °C 34097 hPa ENE 15 km/h 15 km/h 26 % 0 mm
17:23 0.3 °C -11.9 °C 34097 hPa SW 26.9 km/h 26.9 km/h 26 % 0 mm
17:28 0.3 °C -11.9 °C 34097 hPa SE 20.9 km/h 20.9 km/h 26 % 0 mm
17:33 0.5 °C -11.8 °C 34097 hPa East 15 km/h 15 km/h 26 % 0 mm
17:38 0.3 °C -12.2 °C 34097 hPa SSE 15 km/h 15 km/h 25 % 0 mm
17:43 0.2 °C -12 °C 34097 hPa ESE 16.1 km/h 16.1 km/h 26 % 0 mm
17:48 0.1 °C -12.4 °C 34097 hPa SE 15.6 km/h 15.6 km/h 25 % 0 mm
17:53 0.2 °C -12.3 °C 34097 hPa SSW 15 km/h 15 km/h 25 % 0 mm
17:58 0.4 °C -12.1 °C 34063.2 hPa SSW 11.9 km/h 11.9 km/h 25 % 0 mm
18:03 0.2 °C -12 °C 34063.2 hPa East 15 km/h 15 km/h 26 % 0 mm
18:08 0.1 °C -12.4 °C 34063.2 hPa ESE 11.1 km/h 11.1 km/h 25 % 0 mm
18:13 0.2 °C -12.3 °C 34063.2 hPa East 11.9 km/h 11.9 km/h 25 % 0 mm
18:18 0.1 °C -12.4 °C 34063.2 hPa East 15 km/h 15 km/h 25 % 0 mm
18:23 0.3 °C -11.9 °C 34063.2 hPa SW 15 km/h 15 km/h 26 % 0 mm
18:28 0.5 °C -11.8 °C 34063.2 hPa SSE 11.9 km/h 11.9 km/h 26 % 0 mm
18:33 0.4 °C -11.8 °C 34063.2 hPa South 9 km/h 9 km/h 26 % 0 mm
18:38 0.6 °C -12 °C 34063.2 hPa SW 11.9 km/h 11.9 km/h 25 % 0 mm
18:43 0.4 °C -11.8 °C 34063.2 hPa SSW 9 km/h 9 km/h 26 % 0 mm
18:48 0.4 °C -11.8 °C 34063.2 hPa SW 9 km/h 9 km/h 26 % 0 mm
18:53 0.2 °C -12 °C 34063.2 hPa SW 15.3 km/h 15.3 km/h 26 % 0 mm
18:58 0.1 °C -12.1 °C 34063.2 hPa WSW 15 km/h 15 km/h 26 % 0 mm
19:03 -0.1 °C -12.3 °C 34063.2 hPa SW 20.9 km/h 20.9 km/h 26 % 0 mm
19:08 -0.3 °C -12.1 °C 34063.2 hPa SSW 15.6 km/h 15.6 km/h 27 % 0 mm
19:13 -0.3 °C -12.1 °C 34063.2 hPa WSW 11.9 km/h 11.9 km/h 27 % 0 mm
19:18 -0.3 °C -12.1 °C 34063.2 hPa SW 15.3 km/h 15.3 km/h 27 % 0 mm
19:23 -0.3 °C -12.1 °C 34063.2 hPa SSW 11.9 km/h 11.9 km/h 27 % 0 mm
19:28 -0.5 °C -12.3 °C 34063.2 hPa WSW 15 km/h 15 km/h 27 % 0 mm
19:33 -0.5 °C -12.3 °C 34063.2 hPa WSW 25.4 km/h 25.4 km/h 27 % 0 mm
19:38 -0.6 °C -12.3 °C 34063.2 hPa WSW 11.9 km/h 12.2 km/h 27 % 0 mm
19:43 -0.7 °C -12.4 °C 34097 hPa SW 15 km/h 15 km/h 27 % 0 mm
19:48 -0.7 °C -12.2 °C 34097 hPa SSW 15 km/h 15 km/h 28 % 0 mm
19:53 -0.8 °C -12.2 °C 34097 hPa South 17.9 km/h 17.9 km/h 28 % 0 mm
19:58 -0.8 °C -12.3 °C 34063.2 hPa SW 9 km/h 9 km/h 28 % 0 mm
20:03 -0.9 °C -12.3 °C 34063.2 hPa SSW 16.1 km/h 16.1 km/h 28 % 0 mm
20:08 -1.1 °C -12.4 °C 34063.2 hPa SSW 11.9 km/h 11.9 km/h 28 % 0 mm
20:13 -1.2 °C -12.3 °C 34097 hPa WSW 15 km/h 15 km/h 29 % 0 mm
20:18 -1.3 °C -12.3 °C 34097 hPa SW 15 km/h 15.3 km/h 29 % 0 mm
20:19 -1.3 °C -12.1 °C 34097 hPa SSW 17.9 km/h 17.9 km/h 30 % 0 mm
20:24 -1.4 °C -12.2 °C 34097 hPa SSW 15 km/h 15 km/h 30 % 0 mm
20:29 -1.5 °C -12 °C 34097 hPa South 15 km/h 15 km/h 31 % 0 mm
20:34 -1.6 °C -12.1 °C 34097 hPa SSW 17.9 km/h 17.9 km/h 31 % 0 mm
20:39 -1.8 °C -11.7 °C 34097 hPa West 17.9 km/h 17.9 km/h 33 % 0 mm
20:44 -1.8 °C -11.5 °C 34097 hPa ESE 8.5 km/h 8.5 km/h 34 % 0 mm
20:49 -1.9 °C -11.3 °C 34097 hPa SW 3.1 km/h   35 % 0 mm
20:51 -1.9 °C -11.3 °C 34097 hPa Calm     35 % 0 mm
20:56 -2.1 °C -11.4 °C 34097 hPa SW 11.9 km/h 11.9 km/h 35 % 0 mm
21:01 -2.1 °C -11.3 °C 34097 hPa WSW 9.8 km/h 9.8 km/h 36 % 0 mm
21:05 -2.2 °C -11.2 °C 34097 hPa SW 9 km/h 9 km/h 37 % 0 mm
21:11 -2.3 °C -10.9 °C 34097 hPa South 6 km/h 6 km/h 38 % 0 mm
21:16 -2.4 °C -11.1 °C 34097 hPa West 3.1 km/h 3.1 km/h 38 % 0 mm
21:20 -2.5 °C -10.9 °C 34097 hPa WSW 8.5 km/h 8.5 km/h 39 % 0 mm
21:21 -2.5 °C -10.9 °C 34097 hPa WSW 11.9 km/h 11.9 km/h 39 % 0 mm
21:26 -2.6 °C -10.8 °C 34097 hPa SW 8 km/h 8 km/h 40 % 0 mm
21:31 -2.7 °C -10.7 °C 34097 hPa SE 3.1 km/h 3.1 km/h 41 % 0 mm
21:36 -2.8 °C -10.4 °C 34097 hPa SW 3.1 km/h 3.1 km/h 43 % 0 mm
21:41 -2.9 °C -10.4 °C 34097 hPa WSW 3.7 km/h   43 % 0 mm
21:46 -2.9 °C -10.5 °C 34130.9 hPa SW 11.9 km/h 11.9 km/h 43 % 0 mm
21:51 -3.1 °C -10.4 °C 34130.9 hPa SW 7.6 km/h 7.6 km/h 44 % 0 mm
21:56 -3.1 °C -10.4 °C 34130.9 hPa SW 3.1 km/h 3.1 km/h 44 % 0 mm
22:01 -3.2 °C -10.3 °C 34130.9 hPa WSW 3.1 km/h 3.1 km/h 45 % 0 mm
22:06 -3.3 °C -10.2 °C 34130.9 hPa Calm     46 % 0 mm
22:11 -3.3 °C -10.3 °C 34130.9 hPa Calm     46 % 0 mm
22:16 -3.4 °C -10.2 °C 34130.9 hPa South 11.9 km/h 11.9 km/h 47 % 0 mm
22:21 -3.4 °C -10.2 °C 34130.9 hPa SW 6 km/h 6 km/h 47 % 0 mm
22:26 -3.5 °C -10.2 °C 34130.9 hPa WSW 6 km/h 6 km/h 47 % 0 mm
22:31 -3.6 °C -10.1 °C 34130.9 hPa WSW 6 km/h 6 km/h 48 % 0 mm
22:36 -3.6 °C -10.2 °C 34130.9 hPa SW 3.7 km/h 4.2 km/h 48 % 0 mm
22:41 -3.6 °C -10 °C 34130.9 hPa WSW 6.3 km/h 6.3 km/h 49 % 0 mm
22:46 -3.7 °C -10.1 °C 34130.9 hPa SW 6 km/h 6 km/h 49 % 0 mm
22:50 -5.6 °C -8.8 °C 34130.9 hPa NE 7.7 km/h 7.7 km/h 69 % 0 mm
22:51 -3.7 °C -9.9 °C 34130.9 hPa West 6 km/h 6 km/h 50 % 0 mm
22:56 -3.7 °C -9.9 °C 34130.9 hPa WSW 6 km/h 6 km/h 50 % 0 mm
23:00 -5.6 °C -8.8 °C 34130.9 hPa NE 5.1 km/h 5.1 km/h 70 % 0 mm
23:01 -3.8 °C -9.9 °C 34130.9 hPa WNW 9 km/h 9 km/h 50 % 0 mm
23:06 -3.8 °C -9.8 °C 34130.9 hPa WSW 7.6 km/h 7.6 km/h 51 % 0 mm
23:10 -5.7 °C -8.8 °C 34130.9 hPa Calm   5.1 km/h 70 % 0 mm
23:11 -3.9 °C -9.8 °C 34130.9 hPa WNW 6 km/h 6 km/h 52 % 0 mm
23:16 -3.9 °C -9.8 °C 34130.9 hPa West 6 km/h 6 km/h 52 % 0 mm
23:20 -5.7 °C -8.9 °C 34097 hPa Calm   5.1 km/h 70 % 0 mm
23:21 -3.9 °C -9.5 °C 34130.9 hPa WSW 9 km/h 9 km/h 54 % 0 mm
23:26 -4 °C -9.6 °C 34130.9 hPa West 6 km/h 6 km/h 54 % 0 mm
23:30 -5.8 °C -8.8 °C 34097 hPa Calm   2.6 km/h 71 % 0 mm
23:31 -4 °C -9.3 °C 34130.9 hPa WSW 6.3 km/h 6.3 km/h 55 % 0 mm
23:36 -4.1 °C -9.4 °C 34130.9 hPa WNW 6 km/h 6 km/h 55 % 0 mm
23:40 -5.9 °C -8.9 °C 34130.9 hPa NE 2.6 km/h 5.1 km/h 71 % 0 mm
23:41 -4.1 °C -9.5 °C 34130.9 hPa WSW 9 km/h 9 km/h 55 % 0 mm
23:46 -4.1 °C -9.3 °C 34130.9 hPa West 6 km/h 6.3 km/h 56 % 0 mm
23:50 -5.9 °C -9 °C 34130.9 hPa Calm   2.6 km/h 71 % 0 mm
23:51 -4.2 °C -9.3 °C 34130.9 hPa West 6 km/h 6 km/h 56 % 0 mm
23:56 -4.2 °C -9.3 °C 34130.9 hPa WSW 9 km/h 9 km/h 56 % 0 mm
Meteo Sesrovires
Elogis d' Weather Underground - 2 mb

Guio original per  Jim McMurry - jmcmurry@mwt.net Adaptat per a la plantilla per  Wim van der Kuil - Leuven-Template.eu

Trobareu la nostra informacio del temps tambe a:

Weather Underground

AWEKAS